Time;durP1;ratioP1;P1;durP2;ratioP2;P2;SDS_P1;SDS_P2;PMS_P1;PMS_P2;Temp;Humidity;BMP_temperature;BMP_pressure;BME280_temperature;BME280_humidity;BME280_pressure;Samples;Min_cycle;Max_cycle;Signal;HPM_P1;HPM_P2
2022/09/24 00:00:48;;;;;;;4.30;3.90;;;;;;;13.51;72.23;100571.75;5073914;28;20224;-85
2022/09/24 00:03:14;;;;;;;4.83;4.43;;;;;;;13.48;72.77;100570.16;5076302;28;20255;-85
2022/09/24 00:05:41;;;;;;;6.87;4.47;;;;;;;13.47;73.10;100571.13;5078295;28;20215;-86
2022/09/24 00:08:08;;;;;;;5.03;3.83;;;;;;;13.46;72.81;100563.22;5073678;28;20201;-85
2022/09/24 00:10:38;;;;;;;4.47;4.07;;;;;;;13.42;72.80;100564.44;5077010;28;20205;-84
2022/09/24 00:13:07;;;;;;;5.30;4.07;;;;;;;13.41;72.92;100570.78;5072325;28;20273;-85
2022/09/24 00:15:36;;;;;;;4.70;4.03;;;;;;;13.36;72.97;100568.44;5080927;28;20204;-85
2022/09/24 00:18:03;;;;;;;3.67;3.37;;;;;;;13.32;73.11;100561.59;5075936;28;20205;-84
2022/09/24 00:20:30;;;;;;;3.63;3.30;;;;;;;13.29;73.34;100559.16;5074710;28;20207;-85
2022/09/24 00:22:57;;;;;;;3.17;2.87;;;;;;;13.26;73.29;100556.72;5069563;28;20248;-85
2022/09/24 00:28:09;;;;;;;3.37;3.07;;;;;;;13.22;73.11;100557.94;5081085;28;20203;-85
2022/09/24 00:30:38;;;;;;;3.07;2.77;;;;;;;13.19;73.63;100551.00;5070819;28;20189;-85
2022/09/24 00:33:04;;;;;;;3.33;3.03;;;;;;;13.19;73.58;100555.50;5074908;28;20217;-85
2022/09/24 00:35:31;;;;;;;3.37;3.07;;;;;;;13.19;73.77;100551.00;5070239;28;20598;-85
2022/09/24 00:37:57;;;;;;;3.50;3.00;;;;;;;13.20;73.37;100558.06;5078055;28;20200;-85
2022/09/24 00:40:28;;;;;;;3.17;2.87;;;;;;;13.20;73.26;100551.84;5081260;28;20226;-85
2022/09/24 00:42:54;;;;;;;4.47;3.30;;;;;;;13.18;73.72;100549.28;5077623;28;20216;-85
2022/09/24 00:45:23;;;;;;;3.70;3.40;;;;;;;13.18;73.31;100543.94;5073662;28;20201;-84
2022/09/24 00:47:51;;;;;;;3.57;3.27;;;;;;;13.19;73.32;100550.16;5077698;28;20279;-85
2022/09/24 00:50:21;;;;;;;4.30;2.90;;;;;;;13.18;73.64;100546.63;5073136;28;20230;-85
2022/09/24 00:52:53;;;;;;;3.13;2.93;;;;;;;13.17;73.60;100536.03;5065253;28;20193;-85
2022/09/24 00:55:21;;;;;;;3.50;3.20;;;;;;;13.16;73.68;100537.00;5073707;28;20662;-84
2022/09/24 00:57:50;;;;;;;3.43;3.10;;;;;;;13.15;74.02;100541.50;5069594;28;20201;-84
2022/09/24 01:00:18;;;;;;;4.40;4.00;;;;;;;13.14;74.14;100547.78;5072829;28;20224;-86
2022/09/24 01:02:49;;;;;;;3.60;3.30;;;;;;;13.13;74.26;100548.75;5077782;28;20821;-85
2022/09/24 01:05:16;;;;;;;4.37;3.50;;;;;;;13.11;74.82;100542.66;5065982;28;20193;-85
2022/09/24 01:07:43;;;;;;;3.40;3.10;;;;;;;13.08;75.00;100544.69;5068773;28;20247;-85
2022/09/24 01:10:10;;;;;;;7.10;3.47;;;;;;;13.05;74.78;100536.94;5075189;28;20292;-85
2022/09/24 01:12:46;;;;;;;3.80;3.50;;;;;;;13.02;75.20;100531.81;5070096;28;21006;-85
2022/09/24 01:15:22;;;;;;;4.23;3.77;;;;;;;12.99;75.52;100537.38;5078660;28;20679;-85
2022/09/24 01:18:01;;;;;;;4.70;4.30;;;;;;;12.97;75.95;100532.16;5071754;28;20281;-85
2022/09/24 01:20:58;;;;;;;4.73;4.33;;;;;;;12.93;75.78;100533.34;5072276;28;20200;-85
2022/09/24 01:23:41;;;;;;;4.43;3.90;;;;;;;12.90;76.24;100538.09;5072094;28;20220;-84
2022/09/24 01:26:21;;;;;;;4.70;4.30;;;;;;;12.88;76.03;100543.56;5068160;28;20208;-85
2022/09/24 01:29:04;;;;;;;6.67;4.17;;;;;;;12.86;76.33;100538.31;5077786;28;20201;-85
2022/09/24 01:31:36;;;;;;;4.73;4.23;;;;;;;12.84;76.22;100529.56;5075347;28;20690;-85
2022/09/24 01:34:05;;;;;;;4.93;3.77;;;;;;;12.83;76.16;100529.66;5068523;28;20219;-85
2022/09/24 01:36:35;;;;;;;4.27;3.87;;;;;;;12.82;76.21;100525.28;5067594;28;20201;-85
2022/09/24 01:39:04;;;;;;;4.87;4.20;;;;;;;12.82;76.58;100533.31;5078413;28;20204;-85
2022/09/24 01:41:33;;;;;;;4.30;3.90;;;;;;;12.83;76.21;100521.66;5074329;28;20205;-85
2022/09/24 01:44:06;;;;;;;5.30;4.80;;;;;;;12.83;76.59;100532.34;5060514;28;20221;-86
2022/09/24 01:46:37;;;;;;;5.07;4.47;;;;;;;12.84;76.11;100523.34;5064910;28;20274;-86
2022/09/24 01:49:05;;;;;;;5.53;5.00;;;;;;;12.84;76.13;100529.56;5055348;28;20202;-86
2022/09/24 01:51:38;;;;;;;5.23;4.80;;;;;;;12.85;76.01;100525.91;5064649;28;20213;-86
2022/09/24 01:54:09;;;;;;;5.00;4.60;;;;;;;12.85;76.22;100515.22;5064727;28;20840;-84
2022/09/24 01:56:40;;;;;;;5.63;5.03;;;;;;;12.86;76.34;100510.72;5063817;28;20551;-86
2022/09/24 01:59:11;;;;;;;4.67;4.27;;;;;;;12.86;75.94;100516.09;5063633;28;20202;-85
2022/09/24 02:01:44;;;;;;;4.70;4.17;;;;;;;12.85;76.28;100512.56;5064103;28;20208;-85
2022/09/24 02:04:16;;;;;;;5.00;4.50;;;;;;;12.87;76.57;100528.47;5068947;28;20824;-85
2022/09/24 02:06:47;;;;;;;5.17;4.67;;;;;;;12.84;76.24;100521.53;5059172;28;20668;-85
2022/09/24 02:09:34;;;;;;;4.97;4.57;;;;;;;12.85;76.50;100522.41;5066996;28;20206;-86
2022/09/24 02:12:10;;;;;;;5.03;4.53;;;;;;;12.83;76.58;100524.31;5066560;28;20207;-85
2022/09/24 02:14:39;;;;;;;4.83;4.43;;;;;;;12.80;76.82;100521.88;5069022;28;20235;-85
2022/09/24 02:17:09;;;;;;;5.00;4.60;;;;;;;12.79;77.10;100521.03;5068085;28;20197;-85
2022/09/24 02:19:37;;;;;;;5.90;4.90;;;;;;;12.77;77.07;100517.59;5074558;28;20205;-85
2022/09/24 02:22:06;;;;;;;5.70;4.50;;;;;;;12.79;77.51;100512.16;5062570;28;20236;-85
2022/09/24 02:24:40;;;;;;;5.40;4.90;;;;;;;12.79;77.27;100520.16;5069228;28;20307;-85
2022/09/24 02:27:07;;;;;;;6.47;5.37;;;;;;;12.80;77.99;100516.53;5071662;28;20193;-85
2022/09/24 02:29:34;;;;;;;5.73;5.20;;;;;;;12.81;77.96;100518.25;5071388;28;20299;-85
2022/09/24 02:32:03;;;;;;;5.53;4.43;;;;;;;12.82;77.95;100514.59;5066045;28;20201;-85
2022/09/24 02:34:34;;;;;;;6.50;5.00;;;;;;;12.83;78.02;100519.84;5081867;28;20220;-85
2022/09/24 02:37:05;;;;;;;5.17;4.73;;;;;;;12.85;78.00;100527.75;5082143;28;20196;-85
2022/09/24 02:39:31;;;;;;;6.17;4.87;;;;;;;12.84;77.91;100513.53;5077869;28;20205;-85
2022/09/24 02:41:58;;;;;;;5.27;4.77;;;;;;;12.83;78.46;100509.16;5075438;28;20291;-86
2022/09/24 02:44:25;;;;;;;4.87;4.47;;;;;;;12.80;78.23;100516.53;5075049;28;20224;-86
2022/09/24 02:46:51;;;;;;;5.90;5.10;;;;;;;12.80;78.37;100519.19;5074650;28;20217;-86
2022/09/24 02:49:18;;;;;;;5.17;4.33;;;;;;;12.74;78.60;100511.63;5077716;28;20204;-86
2022/09/24 02:51:45;;;;;;;5.50;5.00;;;;;;;12.71;78.86;100519.91;5076561;28;20213;-86
2022/09/24 02:54:12;;;;;;;5.50;4.90;;;;;;;12.68;79.21;100512.97;5078437;28;20268;-85
2022/09/24 02:56:39;;;;;;;5.67;4.93;;;;;;;12.67;79.32;100505.91;5078047;28;20748;-84
2022/09/24 02:59:07;;;;;;;5.63;5.07;;;;;;;12.69;79.78;100508.47;5076103;28;20197;-85
2022/09/24 03:01:34;;;;;;;5.73;5.23;;;;;;;12.70;80.19;100503.00;5074102;28;20581;-86
2022/09/24 03:04:01;;;;;;;4.90;4.50;;;;;;;12.70;79.96;100512.84;5070092;28;20686;-85
2022/09/24 03:06:29;;;;;;;6.63;4.70;;;;;;;12.66;80.28;100503.34;5080590;28;20212;-85
2022/09/24 03:08:57;;;;;;;4.87;4.47;;;;;;;12.63;80.53;100509.78;5071784;28;20717;-85
2022/09/24 03:11:24;;;;;;;4.63;4.23;;;;;;;12.62;80.56;100501.88;5070476;28;20223;-85
2022/09/24 03:13:51;;;;;;;5.37;4.70;;;;;;;12.60;80.97;100509.13;5079981;28;20223;-85
2022/09/24 03:16:19;;;;;;;5.07;4.57;;;;;;;12.57;81.21;100499.53;5074795;28;20211;-84
2022/09/24 03:18:47;;;;;;;5.07;4.67;;;;;;;12.57;81.33;100507.53;5079039;28;20198;-85
2022/09/24 03:21:15;;;;;;;5.73;5.23;;;;;;;12.57;81.91;100499.53;5076636;28;20204;-86
2022/09/24 03:23:42;;;;;;;5.20;4.70;;;;;;;12.57;82.02;100491.50;5069353;28;20231;-85
2022/09/24 03:26:10;;;;;;;5.53;4.50;;;;;;;12.55;82.27;100493.44;5079650;28;20204;-84
2022/09/24 03:28:37;;;;;;;5.27;4.80;;;;;;;12.52;82.38;100491.88;5071037;28;20584;-85
2022/09/24 03:31:03;;;;;;;4.60;4.20;;;;;;;12.48;82.24;100493.06;5079800;28;20196;-85
2022/09/24 03:33:32;;;;;;;5.00;4.60;;;;;;;12.45;82.59;100490.59;5074479;28;20622;-85
2022/09/24 03:35:59;;;;;;;7.00;4.83;;;;;;;12.42;82.54;100488.16;5075386;28;20205;-86
2022/09/24 03:38:28;;;;;;;5.97;5.37;;;;;;;12.42;82.95;100474.81;5073792;28;20216;-85
2022/09/24 03:40:54;;;;;;;5.60;5.10;;;;;;;12.43;82.84;100483.66;5076385;28;20200;-85
2022/09/24 03:43:22;;;;;;;5.33;4.63;;;;;;;12.42;83.38;100485.47;5070407;28;20686;-87
2022/09/24 03:45:51;;;;;;;5.77;5.13;;;;;;;12.43;83.16;100481.84;5078444;28;20215;-86
2022/09/24 03:48:20;;;;;;;6.20;5.60;;;;;;;12.43;83.54;100481.00;5072242;28;20216;-87
2022/09/24 03:50:46;;;;;;;10.33;5.90;;;;;;;12.42;83.80;100485.47;5074506;28;20204;-85
2022/09/24 03:53:14;;;;;;;5.87;5.37;;;;;;;12.43;83.98;100492.53;5075583;28;20224;-85
2022/09/24 03:55:43;;;;;;;5.23;4.83;;;;;;;12.43;84.33;100489.88;5073641;28;20201;-85
2022/09/24 03:58:10;;;;;;;7.03;5.50;;;;;;;12.44;84.35;100486.22;5071143;28;20205;-86
2022/09/24 04:00:38;;;;;;;6.00;4.90;;;;;;;12.44;84.46;100472.03;5076551;28;20681;-85
2022/09/24 04:03:05;;;;;;;5.97;5.47;;;;;;;12.42;84.32;100477.47;5081534;28;20725;-84
2022/09/24 04:05:31;;;;;;;5.20;4.70;;;;;;;12.39;84.07;100480.38;5085344;28;20606;-85
2022/09/24 04:07:58;;;;;;;7.67;5.07;;;;;;;12.35;84.23;100478.91;5080621;28;20203;-85
2022/09/24 04:10:25;;;;;;;5.83;5.23;;;;;;;12.34;83.92;100479.03;5060859;28;20204;-85
2022/09/24 04:12:52;;;;;;;6.27;5.77;;;;;;;12.32;83.86;100470.25;5070098;28;20292;-85
2022/09/24 04:15:20;;;;;;;6.47;5.87;;;;;;;12.29;84.12;100476.69;5079788;28;20207;-85
2022/09/24 04:17:50;;;;;;;5.67;5.17;;;;;;;12.27;84.35;100470.59;5073569;28;20201;-84
2022/09/24 04:20:18;;;;;;;5.67;5.13;;;;;;;12.26;84.23;100471.56;5067048;28;20258;-85
2022/09/24 04:22:45;;;;;;;5.73;4.97;;;;;;;12.26;84.05;100465.38;5077236;28;20226;-84
2022/09/24 04:25:11;;;;;;;5.90;5.40;;;;;;;12.27;84.32;100459.91;5080081;28;20212;-84
2022/09/24 04:27:39;;;;;;;7.63;5.63;;;;;;;12.28;84.42;100477.63;5065993;28;20204;-85
2022/09/24 04:30:07;;;;;;;6.70;6.07;;;;;;;12.30;84.47;100474.88;5067560;28;20203;-86
2022/09/24 04:32:33;;;;;;;6.27;5.70;;;;;;;12.30;84.53;100474.88;5071126;28;20220;-85
2022/09/24 04:35:01;;;;;;;5.87;5.37;;;;;;;12.30;84.46;100467.69;5063649;28;20229;-85
2022/09/24 04:37:28;;;;;;;7.67;5.73;;;;;;;12.31;84.63;100469.41;5065377;28;20290;-85
2022/09/24 04:39:54;;;;;;;6.53;5.93;;;;;;;12.32;84.73;100470.25;5070025;28;20215;-85
2022/09/24 04:42:21;;;;;;;6.43;4.77;;;;;;;12.28;84.33;100469.63;5064968;28;20389;-85
2022/09/24 04:44:47;;;;;;;5.50;5.00;;;;;;;12.24;84.14;100460.13;5075628;28;20220;-85
2022/09/24 04:47:14;;;;;;;5.97;5.40;;;;;;;12.19;84.30;100456.94;5076497;28;20232;-85
2022/09/24 04:49:42;;;;;;;4.90;4.50;;;;;;;12.13;84.32;100452.91;5066138;28;20197;-85
2022/09/24 04:52:09;;;;;;;5.43;4.93;;;;;;;12.09;84.34;100456.78;5078883;28;20201;-85
2022/09/24 04:54:36;;;;;;;5.77;5.27;;;;;;;12.07;84.65;100463.19;5070070;28;20588;-85
2022/09/24 04:57:02;;;;;;;6.10;5.30;;;;;;;12.05;84.67;100465.97;5077572;28;20199;-84
2022/09/24 04:59:29;;;;;;;5.40;4.90;;;;;;;12.02;84.36;100459.97;5064954;28;20627;-85
2022/09/24 05:01:55;;;;;;;5.30;4.80;;;;;;;11.99;84.41;100457.56;5072106;28;20200;-84
2022/09/24 05:04:22;;;;;;;5.30;4.80;;;;;;;11.95;84.25;100470.25;5065441;28;20241;-84
2022/09/24 05:06:48;;;;;;;4.57;4.17;;;;;;;11.94;84.28;100470.38;5076467;28;20208;-84
2022/09/24 05:09:16;;;;;;;7.37;5.30;;;;;;;11.89;84.52;100473.38;5073551;28;20303;-84
2022/09/24 05:11:43;;;;;;;5.63;5.13;;;;;;;11.85;84.44;100468.34;5072249;28;20201;-85
2022/09/24 05:14:09;;;;;;;5.33;4.80;;;;;;;11.82;84.41;100478.28;5067730;28;20404;-85
2022/09/24 05:16:35;;;;;;;5.67;5.03;;;;;;;11.80;84.55;100482.91;5064448;28;20208;-85
2022/09/24 05:19:03;;;;;;;6.43;5.83;;;;;;;11.78;84.96;100478.63;5076974;28;20211;-85
2022/09/24 05:21:30;;;;;;;4.80;4.40;;;;;;;11.76;84.61;100477.88;5073047;28;20202;-85
2022/09/24 05:23:56;;;;;;;6.53;4.73;;;;;;;11.73;84.44;100475.38;5080135;28;20250;-85
2022/09/24 05:29:08;;;;;;;5.40;4.63;;;;;;;11.69;84.18;100481.91;5071512;28;20344;-85
2022/09/24 05:31:35;;;;;;;4.87;4.27;;;;;;;11.68;84.24;100482.84;5072175;28;20212;-85
2022/09/24 05:34:02;;;;;;;5.57;4.67;;;;;;;11.67;84.28;100483.81;5072530;28;20222;-84
2022/09/24 05:36:28;;;;;;;5.83;4.70;;;;;;;11.65;84.17;100481.25;5072553;28;20207;-84
2022/09/24 05:38:55;;;;;;;6.17;4.83;;;;;;;11.64;84.67;100487.56;5073074;28;20223;-85
2022/09/24 05:41:22;;;;;;;5.20;4.67;;;;;;;11.65;84.47;100494.59;5075451;28;20222;-85
2022/09/24 05:43:49;;;;;;;5.17;4.67;;;;;;;11.65;84.90;100494.59;5068840;28;20228;-84
2022/09/24 05:46:17;;;;;;;5.13;4.57;;;;;;;11.67;85.03;100492.66;5070389;28;20241;-84
2022/09/24 05:48:43;;;;;;;5.10;4.70;;;;;;;11.68;84.98;100489.03;5067207;28;20283;-85
2022/09/24 05:51:10;;;;;;;4.83;4.40;;;;;;;11.69;84.96;100492.56;5068033;28;20207;-85
2022/09/24 05:53:36;;;;;;;5.17;4.67;;;;;;;11.70;85.03;100492.47;5059366;28;20666;-84
2022/09/24 05:56:02;;;;;;;10.40;5.17;;;;;;;11.73;84.89;100497.59;5062076;28;20665;-85
2022/09/24 05:58:29;;;;;;;6.37;5.30;;;;;;;11.75;85.20;100493.00;5067732;28;20206;-84
2022/09/24 06:00:58;;;;;;;5.43;4.80;;;;;;;11.76;84.79;100486.72;5069913;28;20605;-84
2022/09/24 06:03:25;;;;;;;6.07;4.27;;;;;;;11.79;85.49;100505.19;5079343;28;20237;-85
2022/09/24 06:05:51;;;;;;;5.27;4.13;;;;;;;11.79;85.32;100501.69;5082295;28;20233;-85
2022/09/24 06:08:19;;;;;;;5.03;4.43;;;;;;;11.80;85.34;100496.22;5067073;28;20208;-84
2022/09/24 06:10:47;;;;;;;5.40;4.90;;;;;;;11.82;85.27;100496.13;5060992;28;20204;-85
2022/09/24 06:13:16;;;;;;;5.57;5.07;;;;;;;11.82;85.49;100485.47;5075332;28;20225;-86
2022/09/24 06:15:42;;;;;;;5.47;4.40;;;;;;;11.83;85.21;100489.81;5069122;28;20233;-85
2022/09/24 06:18:11;;;;;;;5.43;4.10;;;;;;;11.82;85.27;100494.28;5069068;28;20642;-84
2022/09/24 06:20:39;;;;;;;4.80;4.17;;;;;;;11.85;85.41;100487.88;5069243;28;20211;-85
2022/09/24 06:23:06;;;;;;;4.77;4.30;;;;;;;11.86;85.35;100483.41;5069866;28;20232;-85
2022/09/24 06:25:33;;;;;;;4.63;4.23;;;;;;;11.88;85.54;100492.16;5077119;28;20204;-85
2022/09/24 06:28:02;;;;;;;5.60;4.40;;;;;;;11.89;85.60;100494.72;5066489;28;20563;-85
2022/09/24 06:30:30;;;;;;;4.87;4.37;;;;;;;11.92;85.73;100499.84;5062759;28;20800;-84
2022/09/24 06:33:01;;;;;;;4.83;4.43;;;;;;;11.96;85.69;100492.47;5061906;28;20228;-84
2022/09/24 06:35:29;;;;;;;5.33;4.50;;;;;;;11.97;85.44;100494.19;5064864;28;20208;-84
2022/09/24 06:37:56;;;;;;;4.93;4.53;;;;;;;11.99;85.40;100492.25;5074947;28;20663;-84
2022/09/24 06:40:24;;;;;;;4.70;4.23;;;;;;;12.01;85.35;100492.97;5073598;28;20225;-86
2022/09/24 06:42:52;;;;;;;5.83;4.70;;;;;;;12.03;85.29;100493.72;5076201;28;20302;-85
2022/09/24 06:45:19;;;;;;;5.67;5.13;;;;;;;12.06;85.18;100490.84;5071567;28;20229;-85
2022/09/24 06:47:52;;;;;;;5.60;4.60;;;;;;;12.09;85.10;100486.13;5080043;28;20204;-85
2022/09/24 06:50:18;;;;;;;5.97;4.87;;;;;;;12.11;85.19;100488.69;5079746;28;20207;-84
2022/09/24 06:52:46;;;;;;;6.80;4.87;;;;;;;12.14;84.79;100491.16;5074593;28;20214;-85
2022/09/24 06:55:13;;;;;;;5.30;4.87;;;;;;;12.16;85.05;100489.22;5063769;28;20205;-85
2022/09/24 06:57:40;;;;;;;4.37;3.97;;;;;;;12.20;84.85;100490.69;5063763;28;20656;-85
2022/09/24 07:00:07;;;;;;;4.80;4.37;;;;;;;12.24;84.88;100496.66;5062909;28;20684;-84
2022/09/24 07:02:34;;;;;;;5.00;4.40;;;;;;;12.29;84.81;100494.50;5063425;28;20669;-85
2022/09/24 07:05:00;;;;;;;5.10;4.60;;;;;;;12.34;84.68;100493.22;5062852;28;20226;-87
2022/09/24 07:07:31;;;;;;;8.43;5.63;;;;;;;12.40;84.85;100499.91;5070969;28;20214;-86
2022/09/24 07:10:00;;;;;;;5.33;4.83;;;;;;;12.48;84.44;100493.06;5071765;28;20205;-86
2022/09/24 07:12:28;;;;;;;5.17;4.70;;;;;;;12.54;84.30;100499.75;5068908;28;20658;-85
2022/09/24 07:14:54;;;;;;;5.50;4.97;;;;;;;12.62;84.45;100501.88;5060989;28;20226;-86
2022/09/24 07:17:21;;;;;;;6.00;5.40;;;;;;;12.69;84.29;100492.44;5066835;28;20212;-85
2022/09/24 07:19:47;;;;;;;6.30;5.40;;;;;;;12.76;84.02;100489.19;5071724;28;20197;-85
2022/09/24 07:22:14;;;;;;;5.77;5.20;;;;;;;12.83;83.90;100497.59;5078676;28;20208;-85
2022/09/24 07:24:40;;;;;;;6.17;5.57;;;;;;;12.91;83.49;100492.50;5064245;28;20231;-85
2022/09/24 07:27:08;;;;;;;6.93;5.67;;;;;;;12.99;83.45;100491.94;5062886;28;20209;-84
2022/09/24 07:29:35;;;;;;;6.20;5.50;;;;;;;13.08;83.36;100502.78;5061344;28;20813;-85
2022/09/24 07:32:02;;;;;;;5.97;5.47;;;;;;;13.16;83.34;100495.06;5060095;28;20205;-85
2022/09/24 07:34:29;;;;;;;7.07;6.37;;;;;;;13.24;83.00;100488.28;5066439;28;20674;-86
2022/09/24 07:36:56;;;;;;;6.13;5.47;;;;;;;13.32;82.47;100497.41;5062475;28;20205;-86
2022/09/24 07:39:22;;;;;;;10.93;6.33;;;;;;;13.39;82.13;100495.13;5065618;28;20213;-85
2022/09/24 07:41:51;;;;;;;12.00;6.67;;;;;;;13.46;81.48;100493.66;5068514;28;20207;-85
2022/09/24 07:44:19;;;;;;;8.73;6.87;;;;;;;13.52;81.00;100487.84;5064010;28;20688;-84
2022/09/24 07:46:47;;;;;;;7.77;6.83;;;;;;;13.57;80.26;100501.72;5065180;28;20197;-85
2022/09/24 07:49:14;;;;;;;7.93;7.00;;;;;;;13.64;79.41;100494.06;5065622;28;20747;-86
2022/09/24 07:51:40;;;;;;;8.73;6.93;;;;;;;13.74;79.31;100495.91;5063297;28;20205;-85
2022/09/24 07:54:07;;;;;;;9.83;6.80;;;;;;;13.86;79.26;100502.94;5067554;28;20711;-86
2022/09/24 07:56:33;;;;;;;10.43;8.57;;;;;;;13.99;78.38;100497.47;5065619;28;20204;-86
2022/09/24 07:59:00;;;;;;;11.40;9.23;;;;;;;14.15;78.08;100500.59;5064434;28;20271;-84
2022/09/24 08:01:28;;;;;;;9.63;8.60;;;;;;;14.30;77.69;100501.22;5061274;28;20270;-86
2022/09/24 08:03:55;;;;;;;8.60;7.70;;;;;;;14.46;77.05;100501.72;5065077;28;20570;-85
2022/09/24 08:06:22;;;;;;;9.40;8.60;;;;;;;14.62;76.33;100512.00;5074016;28;20282;-85
2022/09/24 08:08:49;;;;;;;10.13;8.40;;;;;;;14.76;75.45;100510.88;5064631;28;20288;-85
2022/09/24 08:11:16;;;;;;;8.87;8.00;;;;;;;14.87;74.50;100505.44;5065910;28;20592;-85
2022/09/24 08:13:42;;;;;;;8.37;7.57;;;;;;;14.97;73.27;100518.97;5061463;28;20225;-85
2022/09/24 08:16:09;;;;;;;8.30;7.50;;;;;;;15.05;72.19;100521.88;5061179;28;20201;-85
2022/09/24 08:18:37;;;;;;;8.07;7.13;;;;;;;15.11;71.40;100514.13;5061079;28;20198;-86
2022/09/24 08:21:04;;;;;;;9.00;7.53;;;;;;;15.18;70.91;100522.53;5067114;28;20202;-85
2022/09/24 08:23:31;;;;;;;8.73;7.13;;;;;;;15.24;69.65;100520.16;5062393;28;20697;-85
2022/09/24 08:25:59;;;;;;;12.17;8.70;;;;;;;15.31;69.06;100530.38;5060172;28;20208;-85
2022/09/24 08:28:25;;;;;;;7.50;6.60;;;;;;;15.36;68.56;100522.78;5064831;28;20205;-85
2022/09/24 08:30:52;;;;;;;10.13;6.93;;;;;;;15.43;68.14;100522.13;5070061;28;20219;-85
2022/09/24 08:33:18;;;;;;;8.80;7.53;;;;;;;15.50;67.57;100520.63;5064399;28;20619;-85
2022/09/24 08:35:46;;;;;;;9.00;7.00;;;;;;;15.58;67.19;100525.38;5063497;28;20201;-79
2022/09/24 08:38:13;;;;;;;7.23;6.40;;;;;;;15.65;66.99;100517.63;5065179;28;20206;-79
2022/09/24 08:40:45;;;;;;;7.40;6.70;;;;;;;15.72;66.33;100518.81;5065226;28;20704;-81
2022/09/24 08:43:24;;;;;;;8.90;7.90;;;;;;;15.78;66.86;100519.09;5061977;28;20670;-81
2022/09/24 08:48:42;;;;;;;8.77;7.90;;;;;;;16.00;67.73;100527.97;5057202;28;20209;-79
2022/09/24 08:51:16;;;;;;;9.43;8.23;;;;;;;16.08;67.91;100520.13;5057723;28;20233;-81
2022/09/24 08:53:50;;;;;;;10.03;7.97;;;;;;;16.15;67.76;100515.88;5064129;28;20258;-81
2022/09/24 08:56:20;;;;;;;9.40;8.50;;;;;;;16.17;66.91;100522.81;5060166;28;20215;-81
2022/09/24 08:58:52;;;;;;;9.10;8.20;;;;;;;16.17;66.91;100520.13;5065698;28;20194;-81
2022/09/24 09:01:28;;;;;;;8.50;7.60;;;;;;;16.18;66.61;100526.34;5066917;28;20219;-81
2022/09/24 09:04:02;;;;;;;9.27;8.23;;;;;;;16.20;66.41;100530.63;5060759;28;20226;-80
2022/09/24 09:07:00;;;;;;;9.03;7.63;;;;;;;16.23;66.36;100533.03;5064747;28;20945;-80
2022/09/24 09:09:38;;;;;;;9.33;7.63;;;;;;;16.25;65.82;100538.28;5060108;28;20711;-80
2022/09/24 09:12:13;;;;;;;8.73;7.90;;;;;;;16.27;65.35;100539.00;5067933;28;20205;-80
2022/09/24 09:14:43;;;;;;;7.67;6.97;;;;;;;16.30;64.81;100536.03;5066509;28;20592;-82
2022/09/24 09:17:20;;;;;;;8.77;7.93;;;;;;;16.31;64.53;100548.47;5067358;28;20238;-82
2022/09/24 09:19:53;;;;;;;8.37;7.60;;;;;;;16.34;64.25;100537.44;5066188;28;20673;-82
2022/09/24 09:22:24;;;;;;;8.83;7.93;;;;;;;16.36;64.30;100543.53;5065374;28;20212;-81
2022/09/24 09:24:52;;;;;;;10.20;8.87;;;;;;;16.40;64.13;100546.81;5060734;28;20239;-83
2022/09/24 09:27:20;;;;;;;9.87;8.87;;;;;;;16.43;63.52;100550.06;5057878;28;20212;-81
2022/09/24 09:29:50;;;;;;;10.03;9.03;;;;;;;16.47;63.41;100546.13;5061965;28;20207;-80
2022/09/24 09:32:32;;;;;;;9.17;7.97;;;;;;;16.54;63.28;100541.88;5060654;28;20209;-81
2022/09/24 09:35:06;;;;;;;11.37;8.87;;;;;;;16.57;63.12;100549.69;5060506;28;20626;-80
2022/09/24 09:37:41;;;;;;;10.93;8.40;;;;;;;16.63;63.23;100548.31;5064822;28;20563;-80
2022/09/24 09:40:25;;;;;;;11.37;8.90;;;;;;;16.68;63.27;100548.72;5059690;28;20201;-80
2022/09/24 09:42:58;;;;;;;10.47;8.80;;;;;;;16.70;62.74;100543.22;5062339;28;20205;-80
2022/09/24 09:45:31;;;;;;;10.83;9.17;;;;;;;16.72;62.90;100549.31;5062887;28;20216;-81
2022/09/24 09:47:58;;;;;;;11.10;9.30;;;;;;;16.71;62.63;100550.31;5060474;28;20207;-81
2022/09/24 09:50:28;;;;;;;9.73;8.80;;;;;;;16.73;62.83;100554.56;5062228;28;20208;-80
2022/09/24 09:52:56;;;;;;;10.70;9.27;;;;;;;16.76;63.11;100553.44;5059956;28;20230;-80
2022/09/24 09:55:25;;;;;;;11.77;10.30;;;;;;;16.76;63.22;100553.44;5063708;28;20210;-80
2022/09/24 09:57:52;;;;;;;11.30;9.87;;;;;;;16.76;63.45;100553.44;5059735;28;20679;-80
2022/09/24 10:00:26;;;;;;;11.97;8.97;;;;;;;16.76;63.57;100558.81;5067045;28;20212;-80
2022/09/24 10:02:53;;;;;;;10.70;9.37;;;;;;;16.74;63.68;100555.41;5061175;28;20286;-80
2022/09/24 10:05:22;;;;;;;12.27;10.70;;;;;;;16.72;63.69;100554.69;5062397;28;20259;-80
2022/09/24 10:07:49;;;;;;;12.07;10.87;;;;;;;16.70;63.80;100556.66;5064108;28;20306;-80
2022/09/24 10:10:22;;;;;;;14.10;11.50;;;;;;;16.66;63.87;100548.88;5060703;28;20292;-80
2022/09/24 10:12:51;;;;;;;12.80;11.60;;;;;;;16.64;64.46;100550.88;5061912;28;20219;-81
2022/09/24 10:15:20;;;;;;;13.13;11.83;;;;;;;16.63;64.74;100545.63;5060357;28;20204;-81
2022/09/24 10:17:49;;;;;;;14.17;12.20;;;;;;;16.60;65.40;100549.41;5056188;28;20215;-81
2022/09/24 10:20:20;;;;;;;12.47;11.33;;;;;;;16.58;65.50;100546.00;5057000;28;20209;-81
2022/09/24 10:22:50;;;;;;;12.40;11.20;;;;;;;16.54;65.68;100549.09;5058074;28;20666;-82
2022/09/24 10:25:23;;;;;;;15.03;11.90;;;;;;;16.53;66.08;100542.03;5058193;28;20239;-80
2022/09/24 10:27:52;;;;;;;13.00;11.57;;;;;;;16.52;66.24;100546.53;5057614;28;20200;-82
2022/09/24 10:30:32;;;;;;;12.77;11.43;;;;;;;16.49;66.28;100541.44;5057144;28;20557;-81
2022/09/24 10:33:00;;;;;;;14.53;13.07;;;;;;;16.46;66.23;100554.34;5060477;28;20239;-82
2022/09/24 10:35:29;;;;;;;13.60;11.83;;;;;;;16.43;66.65;100552.75;5060914;28;20213;-81
2022/09/24 10:37:58;;;;;;;21.23;14.30;;;;;;;16.41;66.57;100546.66;5056933;28;20212;-81
2022/09/24 10:40:29;;;;;;;16.03;13.40;;;;;;;16.38;66.29;100543.41;5059575;28;20215;-82
2022/09/24 10:42:57;;;;;;;15.07;13.33;;;;;;;16.33;66.35;100541.97;5063840;28;20204;-83
2022/09/24 10:45:32;;;;;;;15.50;13.87;;;;;;;16.30;66.26;100541.41;5061405;28;20298;-84
2022/09/24 10:48:11;;;;;;;14.77;13.07;;;;;;;16.29;66.40;100537.03;5055448;28;20671;-83
2022/09/24 10:50:45;;;;;;;16.60;12.30;;;;;;;16.29;66.42;100542.41;5062850;28;20231;-84
2022/09/24 10:53:16;;;;;;;16.80;13.83;;;;;;;16.30;66.81;100542.22;5061655;28;20231;-84
2022/09/24 10:55:59;;;;;;;14.07;12.37;;;;;;;16.31;66.80;100540.41;5065374;28;20613;-83
2022/09/24 10:58:50;;;;;;;17.83;13.77;;;;;;;16.34;66.55;100537.44;5062328;28;20207;-84
2022/09/24 11:01:19;;;;;;;18.20;12.97;;;;;;;16.34;66.84;100537.44;5063691;28;20299;-83
2022/09/24 11:04:04;;;;;;;15.83;12.93;;;;;;;16.36;66.76;100535.47;5062332;28;20224;-83
2022/09/24 11:06:48;;;;;;;14.07;12.20;;;;;;;16.37;66.91;100545.25;5066629;28;20215;-82
2022/09/24 11:09:24;;;;;;;16.57;12.33;;;;;;;16.38;66.66;100538.88;5064938;28;20207;-83
2022/09/24 11:12:01;;;;;;;14.80;12.27;;;;;;;16.38;66.64;100538.88;5064043;28;20229;-83
2022/09/24 11:14:45;;;;;;;14.17;11.80;;;;;;;16.38;66.62;100533.50;5061542;28;20235;-82
2022/09/24 11:17:28;;;;;;;15.10;13.03;;;;;;;16.40;66.88;100536.06;5062325;28;20243;-84
2022/09/24 11:20:15;;;;;;;13.33;11.47;;;;;;;16.41;66.87;100533.22;5062500;28;20213;-83
2022/09/24 11:22:56;;;;;;;14.10;12.30;;;;;;;16.45;66.94;100533.81;5063673;28;20584;-83
2022/09/24 11:25:33;;;;;;;15.37;10.77;;;;;;;16.48;66.58;100530.84;5067560;28;20226;-83
2022/09/24 11:28:16;;;;;;;12.53;11.07;;;;;;;16.48;66.64;100523.59;5067756;28;20716;-83
2022/09/24 11:30:52;;;;;;;12.03;10.83;;;;;;;16.48;66.28;100531.69;5065831;28;20602;-83
2022/09/24 11:33:32;;;;;;;12.70;10.20;;;;;;;16.50;66.27;100529.69;5066549;28;20704;-83
2022/09/24 11:36:20;;;;;;;12.50;10.27;;;;;;;16.53;66.11;100532.13;5066293;28;20206;-83
2022/09/24 11:39:02;;;;;;;10.70;9.60;;;;;;;16.56;65.86;100534.53;5065484;28;20210;-83
2022/09/24 11:41:39;;;;;;;10.13;9.20;;;;;;;16.60;65.46;100532.44;5067746;28;20207;-82